الصفحة الرئيسية
METAR-TAF:

METAR-TAF

مطار :

مطار محمد الخامس الدولي

الدار البيضاء-محمد الخامس بن يوسف, المغرب

دائرة عرض: 33-22N, خط طول: 007-35W, ارتفاع: 200 متر

مراقبة الطقس الحالي

تاريخ ووقت الإصدار 41 دقيقة قبل الساعة 03:00UTC
ريح 8 عقدة من الشمال/الشمال الشرقي
درجة الحرارة 13°درجة مئوية
الرطوبة 94%
ضغط 1027 hPa
الرؤية: 8000 متر
غيوم متفرقة على ارتفاع 1000 قدم

METAR: GMMN 180300Z 03008KT 8000 SCT010 13/12 Q1027 NOSIG

زمن: 04:41 (03:41 UTC)

توقعات

تاريخ ووقت الإصدار 4ساعات و 41 دقيقة قبل الساعة 23:00UTC
التوقعات صالحة من18 الساعة 00 UTC إلى 19 الساعة 06 UTC
ريح 7 عقدة من الشمال
الرؤية: 3000 متر
غيوم متفرقة على ارتفاع 400 قدم
غشاء
مؤقت
من 18 الساعة 04 UTC إلى 18 الساعة 09 UTC
الرؤية: 0400 متر
ملبد بالغيوم على ارتفاع 400 قدم
ضباب
أصبح
من 18 الساعة 10 UTC إلى 18 الساعة 13 UTC
ريح 12 عقدة من الشمال
الرؤية: 8000 متر
غيوم مفككة على ارتفاع 1600 قدم
غيوم متفرقة على ارتفاع 20000 قدم

TAF: GMMN 172300Z 1800/1906 36007KT 3000 BR SCT004 TEMPO 1804/1809 0400 FG OVC004 BECMG 1810/1813 36012KT 8000 BKN016 SCT200

أرصاد الطقس والتوقعات من أكثر من 4000 مطار (تقارير الطقس للمطار METAR والتنبؤ بالطقس بالمطارTAF).

المحطات المتاحة هي النقط الصفراء والحمراء على الخريطة.

حرك المؤشر فوق النقطة لمعرفة اسم المحطة.

ثم انقر لمعرفة أرصاد وتوقعات الطقس.

لتغيير الخارطة: اضغط على الأزرار الخضراء مع رمز الصليب الأسود للتكبير. على الزر الأخضر مع شرطة للتصغير، أو على الأسهم الخضراء للخرائط المجاورة.


METAR-TAF: